Time;durP1;ratioP1;P1;durP2;ratioP2;P2;SDS_P1;SDS_P2;PMS_P1;PMS_P2;Temp;Humidity;BMP_temperature;BMP_pressure;BME280_temperature;BME280_humidity;BME280_pressure;Samples;Min_cycle;Max_cycle;Signal;HPM_P1;HPM_P2
2022/03/02 00:01:04;;;;;;;23.90;12.98;;;;;;;;;;5057761;28;20021;-85
2022/03/02 00:03:30;;;;;;;20.60;12.52;;;;;;;;;;5063016;28;20032;-85
2022/03/02 00:05:56;;;;;;;20.15;12.30;;;;;;;;;;5057885;28;20055;-85
2022/03/02 00:08:23;;;;;;;19.52;12.75;;;;;;;;;;5048218;28;20029;-85
2022/03/02 00:10:49;;;;;;;21.42;12.52;;;;;;;;;;5062670;28;20017;-85
2022/03/02 00:13:15;;;;;;;19.67;12.18;;;;;;;;;;5057509;28;20045;-86
2022/03/02 00:15:41;;;;;;;23.02;13.63;;;;;;;;;;5065034;28;20021;-83
2022/03/02 00:18:07;;;;;;;21.17;12.52;;;;;;;;;;5057746;28;20014;-84
2022/03/02 00:20:35;;;;;;;24.13;12.32;;;;;;;;;;5047734;28;20033;-86
2022/03/02 00:23:01;;;;;;;18.90;11.50;;;;;;;;;;5034634;28;20022;-86
2022/03/02 00:25:27;;;;;;;22.35;13.43;;;;;;;;;;5035647;28;20021;-86
2022/03/02 00:27:54;;;;;;;21.83;12.45;;;;;;;;;;5047562;28;20047;-86
2022/03/02 00:30:22;;;;;;;18.83;11.93;;;;;;;;;;5051372;28;20056;-85
2022/03/02 00:32:48;;;;;;;19.70;11.77;;;;;;;;;;5063687;28;20047;-84
2022/03/02 00:35:14;;;;;;;21.52;11.57;;;;;;;;;;5050806;28;20085;-84
2022/03/02 00:37:40;;;;;;;19.90;11.98;;;;;;;;;;5055071;28;20017;-85
2022/03/02 00:40:06;;;;;;;21.45;12.48;;;;;;;;;;5052447;28;20029;-85
2022/03/02 00:42:32;;;;;;;19.75;12.00;;;;;;;;;;5048857;28;20048;-84
2022/03/02 00:44:58;;;;;;;22.45;12.35;;;;;;;;;;5060360;28;20021;-87
2022/03/02 00:47:24;;;;;;;20.77;11.98;;;;;;;;;;5046407;28;20021;-86
2022/03/02 00:49:51;;;;;;;21.88;12.07;;;;;;;;;;5047609;28;20484;-85
2022/03/02 00:52:17;;;;;;;22.42;11.98;;;;;;;;;;5034041;28;20056;-87
2022/03/02 00:54:43;;;;;;;20.20;12.48;;;;;;;;;;5050041;28;20132;-86
2022/03/02 00:57:09;;;;;;;25.50;13.48;;;;;;;;;;5051968;28;20047;-86
2022/03/02 00:59:35;;;;;;;18.85;11.77;;;;;;;;;;5050151;28;20029;-85
2022/03/02 01:02:01;;;;;;;22.75;12.93;;;;;;;;;;5051615;28;20351;-86
2022/03/02 01:04:27;;;;;;;24.30;13.52;;;;;;;;;;5051774;28;20033;-86
2022/03/02 01:06:53;;;;;;;20.30;12.60;;;;;;;;;;5046007;28;20516;-86
2022/03/02 01:09:19;;;;;;;18.77;12.50;;;;;;;;;;5039016;28;20044;-84
2022/03/02 01:11:45;;;;;;;18.48;11.88;;;;;;;;;;5054852;28;20033;-84
2022/03/02 01:14:11;;;;;;;23.67;12.88;;;;;;;;;;5055919;28;20642;-85
2022/03/02 01:16:37;;;;;;;21.50;12.50;;;;;;;;;;5063147;28;20051;-84
2022/03/02 01:19:03;;;;;;;20.65;12.35;;;;;;;;;;5055395;28;20025;-84
2022/03/02 01:21:29;;;;;;;21.67;13.38;;;;;;;;;;5049025;28;20040;-84
2022/03/02 01:23:57;;;;;;;20.23;12.43;;;;;;;;;;5047660;28;20025;-84
2022/03/02 01:26:29;;;;;;;20.73;12.30;;;;;;;;;;5054308;28;20550;-84
2022/03/02 01:28:55;;;;;;;20.15;11.48;;;;;;;;;;5053214;28;20463;-84
2022/03/02 01:31:22;;;;;;;20.25;12.65;;;;;;;;;;5047933;28;20040;-84
2022/03/02 01:33:49;;;;;;;21.73;12.10;;;;;;;;;;5051566;28;20030;-84
2022/03/02 01:36:15;;;;;;;20.33;11.55;;;;;;;;;;5048633;28;20013;-84
2022/03/02 01:38:42;;;;;;;20.63;13.05;;;;;;;;;;5057876;28;20029;-84
2022/03/02 01:41:09;;;;;;;22.83;12.13;;;;;;;;;;5046253;28;20029;-84
2022/03/02 01:43:35;;;;;;;22.65;12.23;;;;;;;;;;5050709;28;20033;-85
2022/03/02 01:46:01;;;;;;;19.17;10.77;;;;;;;;;;5058730;28;20036;-85
2022/03/02 01:48:27;;;;;;;20.88;11.77;;;;;;;;;;5041297;28;20025;-84
2022/03/02 01:50:53;;;;;;;20.58;12.65;;;;;;;;;;5037377;28;20025;-84
2022/03/02 01:53:19;;;;;;;20.35;13.32;;;;;;;;;;5053629;28;20084;-84
2022/03/02 01:55:45;;;;;;;20.98;12.70;;;;;;;;;;5057653;28;20025;-84
2022/03/02 01:58:11;;;;;;;20.23;11.25;;;;;;;;;;5058236;28;20025;-84
2022/03/02 02:00:37;;;;;;;20.60;12.65;;;;;;;;;;5057739;28;20098;-84
2022/03/02 02:03:03;;;;;;;22.08;12.05;;;;;;;;;;5056934;28;20075;-84
2022/03/02 02:05:30;;;;;;;20.08;11.35;;;;;;;;;;5056220;28;20509;-85
2022/03/02 02:07:56;;;;;;;18.25;10.73;;;;;;;;;;5057945;28;20033;-85
2022/03/02 02:10:22;;;;;;;19.13;10.90;;;;;;;;;;5059139;28;20021;-84
2022/03/02 02:12:48;;;;;;;22.65;12.48;;;;;;;;;;5056060;28;20029;-84
2022/03/02 02:15:14;;;;;;;21.05;11.35;;;;;;;;;;5055526;28;20024;-84
2022/03/02 02:17:41;;;;;;;20.33;11.57;;;;;;;;;;5055725;28;20025;-85
2022/03/02 02:20:08;;;;;;;22.58;11.82;;;;;;;;;;5055895;28;20017;-83
2022/03/02 02:22:41;;;;;;;18.38;11.45;;;;;;;;;;5056381;28;20029;-85
2022/03/02 02:25:07;;;;;;;20.98;12.07;;;;;;;;;;5056389;28;20021;-84
2022/03/02 02:27:33;;;;;;;20.25;11.90;;;;;;;;;;5053890;28;20044;-84
2022/03/02 02:30:00;;;;;;;18.98;11.38;;;;;;;;;;5054570;28;20025;-84
2022/03/02 02:32:26;;;;;;;22.05;12.15;;;;;;;;;;5055203;28;20032;-83
2022/03/02 02:34:52;;;;;;;21.67;11.35;;;;;;;;;;5057079;28;20640;-83
2022/03/02 02:37:18;;;;;;;19.83;11.27;;;;;;;;;;5055581;28;20029;-83
2022/03/02 02:39:53;;;;;;;23.70;12.10;;;;;;;;;;5049110;28;20075;-84
2022/03/02 02:42:19;;;;;;;20.63;12.23;;;;;;;;;;5036908;28;20096;-84
2022/03/02 02:44:47;;;;;;;21.73;12.63;;;;;;;;;;5035650;28;20025;-83
2022/03/02 02:47:13;;;;;;;21.17;11.88;;;;;;;;;;5036490;28;20022;-84
2022/03/02 02:49:39;;;;;;;20.83;11.45;;;;;;;;;;5044830;28;20029;-84
2022/03/02 02:52:06;;;;;;;22.33;12.27;;;;;;;;;;5055076;28;20036;-86
2022/03/02 02:54:32;;;;;;;23.65;12.60;;;;;;;;;;5038208;28;20033;-86
2022/03/02 02:56:58;;;;;;;20.48;12.50;;;;;;;;;;5039015;28;20131;-86
2022/03/02 02:59:24;;;;;;;23.77;13.10;;;;;;;;;;5044060;28;20494;-85
2022/03/02 03:01:50;;;;;;;20.08;12.00;;;;;;;;;;5054272;28;20021;-86
2022/03/02 03:04:17;;;;;;;18.13;11.13;;;;;;;;;;5052715;28;20126;-86
2022/03/02 03:06:43;;;;;;;19.42;12.05;;;;;;;;;;5033781;28;20057;-85
2022/03/02 03:09:09;;;;;;;20.63;10.68;;;;;;;;;;5050150;28;20036;-85
2022/03/02 03:11:41;;;;;;;17.90;11.27;;;;;;;;;;5042834;28;20029;-85
2022/03/02 03:14:08;;;;;;;19.70;10.98;;;;;;;;;;5048579;28;20025;-86
2022/03/02 03:16:34;;;;;;;17.75;11.57;;;;;;;;;;5042405;28;20021;-86
2022/03/02 03:19:00;;;;;;;18.17;10.68;;;;;;;;;;5033473;28;20392;-85
2022/03/02 03:21:26;;;;;;;21.05;11.30;;;;;;;;;;5032701;28;20295;-85
2022/03/02 03:23:52;;;;;;;21.02;12.07;;;;;;;;;;5047202;28;20032;-85
2022/03/02 03:26:18;;;;;;;17.92;11.20;;;;;;;;;;5043866;28;20025;-85
2022/03/02 03:28:44;;;;;;;18.80;10.07;;;;;;;;;;5035654;28;20028;-86
2022/03/02 03:31:10;;;;;;;17.92;10.93;;;;;;;;;;5048417;28;20100;-85
2022/03/02 03:33:36;;;;;;;22.42;11.93;;;;;;;;;;5032825;28;20511;-86
2022/03/02 03:36:04;;;;;;;23.17;11.18;;;;;;;;;;5034208;28;20026;-86
2022/03/02 03:38:30;;;;;;;20.05;11.98;;;;;;;;;;5050295;28;20155;-83
2022/03/02 03:40:56;;;;;;;21.92;11.45;;;;;;;;;;5042286;28;20562;-83
2022/03/02 03:43:22;;;;;;;17.42;10.95;;;;;;;;;;5036941;28;20034;-84
2022/03/02 03:45:49;;;;;;;18.35;10.55;;;;;;;;;;5054552;28;20444;-85
2022/03/02 03:48:15;;;;;;;17.98;10.77;;;;;;;;;;5053218;28;20051;-85
2022/03/02 03:50:41;;;;;;;20.02;10.38;;;;;;;;;;5036938;28;20037;-85
2022/03/02 03:53:08;;;;;;;18.15;10.25;;;;;;;;;;5048053;28;20064;-85
2022/03/02 03:55:34;;;;;;;17.27;11.00;;;;;;;;;;5047482;28;20116;-86
2022/03/02 03:58:00;;;;;;;17.65;10.35;;;;;;;;;;5047373;28;20017;-86
2022/03/02 04:00:26;;;;;;;25.20;11.68;;;;;;;;;;5033000;28;20033;-86
2022/03/02 04:02:52;;;;;;;19.30;11.23;;;;;;;;;;5045926;28;20029;-85
2022/03/02 04:05:18;;;;;;;19.20;11.48;;;;;;;;;;5042535;28;20033;-84
2022/03/02 04:07:45;;;;;;;18.88;11.05;;;;;;;;;;5030952;28;20498;-84
2022/03/02 04:10:13;;;;;;;19.85;11.63;;;;;;;;;;5036554;28;20043;-84
2022/03/02 04:12:39;;;;;;;19.98;12.00;;;;;;;;;;5043388;28;20025;-85
2022/03/02 04:15:05;;;;;;;20.40;12.40;;;;;;;;;;5030918;28;20467;-84
2022/03/02 04:17:31;;;;;;;21.58;11.95;;;;;;;;;;5032532;28;20480;-85
2022/03/02 04:19:57;;;;;;;21.80;12.60;;;;;;;;;;5031332;28;20036;-86
2022/03/02 04:22:23;;;;;;;17.08;11.07;;;;;;;;;;5040598;28;20017;-85
2022/03/02 04:24:49;;;;;;;20.80;10.80;;;;;;;;;;5053560;28;20051;-85
2022/03/02 04:27:15;;;;;;;20.15;12.27;;;;;;;;;;5040644;28;20536;-85
2022/03/02 04:29:41;;;;;;;20.50;11.95;;;;;;;;;;5054128;28;20032;-85
2022/03/02 04:32:08;;;;;;;19.85;11.45;;;;;;;;;;5060933;28;20032;-84
2022/03/02 04:34:34;;;;;;;17.23;12.05;;;;;;;;;;5057012;28;20029;-83
2022/03/02 04:37:00;;;;;;;17.48;11.20;;;;;;;;;;5064493;28;20138;-83
2022/03/02 04:39:26;;;;;;;22.30;12.25;;;;;;;;;;5048362;28;20032;-84
2022/03/02 04:41:52;;;;;;;19.38;10.95;;;;;;;;;;5048071;28;20025;-84
2022/03/02 04:44:18;;;;;;;20.38;10.90;;;;;;;;;;5048917;28;20033;-84
2022/03/02 04:46:48;;;;;;;23.35;13.07;;;;;;;;;;5048226;28;20025;-84
2022/03/02 04:49:17;;;;;;;21.20;10.90;;;;;;;;;;5042182;28;20033;-83
2022/03/02 04:51:44;;;;;;;18.10;11.07;;;;;;;;;;5043029;28;20391;-82
2022/03/02 04:55:05;;;;;;;22.95;11.90;;;;;;;;;;5042501;28;20045;-84
2022/03/02 04:56:56;;;;;;;20.15;11.82;;;;;;;;;;5055178;28;20036;-84
2022/03/02 04:59:22;;;;;;;19.90;11.48;;;;;;;;;;5052938;28;20025;-85
2022/03/02 05:01:50;;;;;;;19.23;10.82;;;;;;;;;;5038760;28;20029;-83
2022/03/02 05:04:16;;;;;;;20.20;11.35;;;;;;;;;;5039768;28;20053;-84
2022/03/02 05:06:42;;;;;;;19.20;11.95;;;;;;;;;;5043008;28;20657;-84
2022/03/02 05:09:08;;;;;;;20.75;11.20;;;;;;;;;;5039271;28;20125;-84
2022/03/02 05:11:34;;;;;;;21.58;11.05;;;;;;;;;;5045912;28;20476;-84
2022/03/02 05:14:00;;;;;;;23.58;12.65;;;;;;;;;;5059636;28;20087;-84
2022/03/02 05:16:26;;;;;;;21.13;11.52;;;;;;;;;;5059105;28;20030;-83
2022/03/02 05:18:52;;;;;;;22.58;11.77;;;;;;;;;;5047059;28;20022;-84
2022/03/02 05:21:22;;;;;;;16.48;10.40;;;;;;;;;;5048649;28;20025;-83
2022/03/02 05:23:48;;;;;;;20.83;11.30;;;;;;;;;;5051139;28;20030;-84
2022/03/02 05:26:14;;;;;;;17.45;10.73;;;;;;;;;;5048837;28;20035;-85
2022/03/02 05:28:40;;;;;;;17.60;10.75;;;;;;;;;;5053838;28;20483;-85
2022/03/02 05:31:06;;;;;;;20.77;11.80;;;;;;;;;;5051206;28;20032;-84
2022/03/02 05:33:32;;;;;;;25.38;10.52;;;;;;;;;;5045876;28;20361;-84
2022/03/02 05:35:58;;;;;;;25.02;11.32;;;;;;;;;;5049016;28;20033;-84
2022/03/02 05:38:24;;;;;;;22.58;11.02;;;;;;;;;;5036806;28;20472;-84
2022/03/02 05:40:51;;;;;;;21.35;11.13;;;;;;;;;;5047541;28;20017;-84
2022/03/02 05:43:17;;;;;;;20.10;11.73;;;;;;;;;;5051181;28;20449;-85
2022/03/02 05:45:45;;;;;;;19.77;11.05;;;;;;;;;;5050993;28;20021;-84
2022/03/02 05:48:11;;;;;;;19.73;10.18;;;;;;;;;;5039605;28;20471;-84
2022/03/02 05:50:37;;;;;;;20.55;11.18;;;;;;;;;;5034503;28;20421;-85
2022/03/02 05:53:03;;;;;;;19.10;11.18;;;;;;;;;;5047444;28;20140;-85
2022/03/02 05:55:29;;;;;;;17.35;10.70;;;;;;;;;;5046810;28;20053;-86
2022/03/02 05:57:55;;;;;;;16.30;9.23;;;;;;;;;;5057611;28;20025;-84
2022/03/02 06:00:21;;;;;;;16.88;9.90;;;;;;;;;;5072011;28;20025;-85
2022/03/02 06:02:47;;;;;;;17.63;10.80;;;;;;;;;;5052693;28;20029;-85
2022/03/02 06:05:14;;;;;;;20.20;10.43;;;;;;;;;;5061980;28;20033;-85
2022/03/02 06:07:40;;;;;;;16.63;11.05;;;;;;;;;;5059758;28;20033;-85
2022/03/02 06:10:07;;;;;;;20.15;10.80;;;;;;;;;;5041220;28;20089;-85
2022/03/02 06:12:33;;;;;;;18.55;10.10;;;;;;;;;;5041891;28;20014;-84
2022/03/02 06:14:59;;;;;;;19.42;10.77;;;;;;;;;;5048694;28;20051;-85
2022/03/02 06:17:26;;;;;;;20.55;10.02;;;;;;;;;;5042803;28;20396;-85
2022/03/02 06:19:52;;;;;;;17.42;10.73;;;;;;;;;;5039821;28;20022;-82
2022/03/02 06:22:20;;;;;;;15.60;9.20;;;;;;;;;;5044248;28;20066;-82
2022/03/02 06:24:46;;;;;;;16.83;10.80;;;;;;;;;;5067905;28;20035;-85
2022/03/02 06:27:12;;;;;;;16.83;10.32;;;;;;;;;;5065227;28;20060;-85
2022/03/02 06:29:38;;;;;;;20.73;10.57;;;;;;;;;;5064255;28;20029;-84
2022/03/02 06:32:05;;;;;;;18.90;10.95;;;;;;;;;;5051383;28;20081;-84
2022/03/02 06:34:32;;;;;;;17.65;10.73;;;;;;;;;;5061904;28;20025;-84
2022/03/02 06:36:58;;;;;;;18.40;10.18;;;;;;;;;;5054472;28;20052;-85
2022/03/02 06:39:24;;;;;;;17.50;11.00;;;;;;;;;;5046805;28;20037;-85
2022/03/02 06:42:11;;;;;;;17.58;11.32;;;;;;;;;;5055520;28;20454;-84
2022/03/02 06:44:37;;;;;;;18.48;9.95;;;;;;;;;;5051736;28;20034;-85
2022/03/02 06:47:09;;;;;;;15.02;9.98;;;;;;;;;;5045670;28;20125;-84
2022/03/02 06:49:54;;;;;;;18.35;10.30;;;;;;;;;;5047034;28;20044;-85
2022/03/02 06:52:21;;;;;;;17.58;10.80;;;;;;;;;;5050062;28;20055;-86
2022/03/02 06:54:50;;;;;;;18.65;10.45;;;;;;;;;;5050424;28;20113;-85
2022/03/02 06:57:18;;;;;;;20.70;11.20;;;;;;;;;;5055257;28;20017;-85
2022/03/02 06:59:47;;;;;;;19.27;10.13;;;;;;;;;;5051346;28;20040;-85
2022/03/02 07:02:15;;;;;;;15.82;10.32;;;;;;;;;;5042552;28;20037;-86
2022/03/02 07:04:42;;;;;;;17.60;10.57;;;;;;;;;;5043470;28;20033;-83
2022/03/02 07:07:09;;;;;;;16.70;10.07;;;;;;;;;;5057048;28;20071;-89
2022/03/02 07:09:36;;;;;;;20.27;11.02;;;;;;;;;;5082334;28;20017;-88
2022/03/02 07:12:03;;;;;;;21.92;11.40;;;;;;;;;;5076509;28;20025;-83
2022/03/02 07:14:31;;;;;;;17.55;10.27;;;;;;;;;;5058044;28;20049;-82
2022/03/02 07:16:58;;;;;;;19.23;10.48;;;;;;;;;;5047783;28;20021;-84
2022/03/02 07:19:25;;;;;;;18.75;11.00;;;;;;;;;;5051469;28;20555;-83
2022/03/02 07:21:52;;;;;;;17.05;10.23;;;;;;;;;;5039792;28;20029;-84
2022/03/02 07:24:19;;;;;;;22.27;11.38;;;;;;;;;;5052672;28;20021;-84
2022/03/02 07:26:46;;;;;;;17.77;10.75;;;;;;;;;;5054961;28;20048;-86
2022/03/02 07:29:14;;;;;;;19.55;11.10;;;;;;;;;;5059287;28;20028;-86
2022/03/02 07:31:42;;;;;;;25.63;11.85;;;;;;;;;;5050209;28;20025;-85
2022/03/02 07:34:10;;;;;;;24.67;12.20;;;;;;;;;;5036956;28;20033;-83
2022/03/02 07:36:37;;;;;;;20.17;11.90;;;;;;;;;;5054261;28;20025;-84
2022/03/02 07:39:03;;;;;;;19.75;11.05;;;;;;;;;;5052002;28;20107;-84
2022/03/02 07:41:29;;;;;;;17.52;12.07;;;;;;;;;;5042260;28;20029;-83
2022/03/02 07:43:55;;;;;;;17.15;10.98;;;;;;;;;;5046895;28;20048;-83
2022/03/02 07:46:21;;;;;;;19.08;11.55;;;;;;;;;;5058874;28;20059;-84
2022/03/02 07:48:47;;;;;;;18.17;11.27;;;;;;;;;;5053738;28;20029;-84
2022/03/02 07:51:15;;;;;;;29.05;15.57;;;;;;;;;;5042490;28;20044;-84
2022/03/02 07:53:42;;;;;;;35.90;18.27;;;;;;;;;;5054187;28;20442;-84
2022/03/02 07:56:11;;;;;;;21.02;13.52;;;;;;;;;;5041861;28;20475;-84
2022/03/02 07:58:39;;;;;;;20.48;11.75;;;;;;;;;;5040207;28;20030;-83
2022/03/02 08:01:07;;;;;;;19.85;12.43;;;;;;;;;;5045952;28;20026;-83
2022/03/02 08:03:37;;;;;;;18.55;12.95;;;;;;;;;;5069073;28;20115;-84
2022/03/02 08:06:03;;;;;;;18.98;12.07;;;;;;;;;;5038490;28;20120;-84
2022/03/02 08:08:29;;;;;;;19.55;12.52;;;;;;;;;;5037004;28;20370;-84
2022/03/02 08:10:56;;;;;;;19.52;11.80;;;;;;;;;;5042399;28;20076;-84
2022/03/02 08:13:23;;;;;;;20.42;11.75;;;;;;;;;;5038276;28;20026;-84
2022/03/02 08:15:50;;;;;;;16.15;11.70;;;;;;;;;;5037093;28;20040;-84
2022/03/02 08:18:17;;;;;;;18.00;11.70;;;;;;;;;;5037186;28;20032;-85
2022/03/02 08:20:47;;;;;;;21.02;12.40;;;;;;;;;;5034584;28;20014;-85
2022/03/02 08:23:13;;;;;;;20.15;12.93;;;;;;;;;;5044367;28;20033;-86
2022/03/02 08:25:39;;;;;;;18.45;12.30;;;;;;;;;;5057236;28;20024;-84
2022/03/02 08:28:09;;;;;;;17.92;11.05;;;;;;;;;;5053563;28;20029;-84
2022/03/02 08:30:36;;;;;;;17.75;11.98;;;;;;;;;;5035908;28;20022;-85
2022/03/02 08:33:03;;;;;;;18.65;12.18;;;;;;;;;;5056490;28;20052;-85
2022/03/02 08:35:35;;;;;;;16.75;10.90;;;;;;;;;;5046568;28;20021;-84
2022/03/02 08:38:01;;;;;;;19.55;12.68;;;;;;;;;;5034052;28;20060;-85
2022/03/02 08:40:27;;;;;;;19.17;12.82;;;;;;;;;;5035201;28;20034;-85
2022/03/02 08:42:53;;;;;;;17.75;11.23;;;;;;;;;;5044467;28;20094;-84
2022/03/02 08:45:20;;;;;;;20.23;11.27;;;;;;;;;;5052294;28;20045;-84
2022/03/02 08:47:46;;;;;;;16.88;11.80;;;;;;;;;;5054335;28;20114;-84
2022/03/02 08:50:12;;;;;;;17.27;11.93;;;;;;;;;;5055575;28;20075;-84
2022/03/02 08:52:38;;;;;;;18.60;11.95;;;;;;;;;;5045293;28;20454;-84
2022/03/02 08:55:06;;;;;;;16.40;11.35;;;;;;;;;;5039434;28;20037;-85
2022/03/02 08:57:34;;;;;;;18.30;12.30;;;;;;;;;;5036896;28;20029;-85
2022/03/02 09:00:00;;;;;;;17.77;11.18;;;;;;;;;;5037830;28;20052;-85
2022/03/02 09:02:29;;;;;;;16.15;10.52;;;;;;;;;;5038195;28;20018;-86
2022/03/02 09:04:59;;;;;;;17.25;11.20;;;;;;;;;;5051680;28;20029;-85
2022/03/02 09:07:25;;;;;;;16.77;11.73;;;;;;;;;;5056854;28;20100;-84
2022/03/02 09:09:51;;;;;;;16.60;11.23;;;;;;;;;;5055941;28;20120;-84
2022/03/02 09:12:17;;;;;;;18.48;11.88;;;;;;;;;;5056486;28;20087;-84
2022/03/02 09:14:45;;;;;;;16.10;11.07;;;;;;;;;;5056635;28;20541;-85
2022/03/02 09:17:11;;;;;;;17.67;11.90;;;;;;;;;;5058601;28;20036;-84
2022/03/02 09:19:39;;;;;;;19.13;11.63;;;;;;;;;;5055238;28;20029;-84
2022/03/02 09:22:05;;;;;;;21.23;12.05;;;;;;;;;;5047252;28;20470;-84
2022/03/02 09:24:31;;;;;;;20.27;12.95;;;;;;;;;;5040821;28;20104;-85
2022/03/02 09:26:58;;;;;;;17.52;12.10;;;;;;;;;;5037875;28;20021;-85
2022/03/02 09:29:28;;;;;;;16.20;12.20;;;;;;;;;;5037384;28;20021;-85
2022/03/02 09:31:56;;;;;;;19.25;12.13;;;;;;;;;;5038304;28;20368;-85
2022/03/02 09:34:25;;;;;;;17.88;11.38;;;;;;;;;;5057763;28;20025;-83
2022/03/02 09:36:53;;;;;;;18.85;11.90;;;;;;;;;;5068605;28;20438;-86
2022/03/02 09:39:19;;;;;;;17.80;10.93;;;;;;;;;;5069503;28;20032;-85
2022/03/02 09:41:49;;;;;;;19.42;11.85;;;;;;;;;;5048844;28;20039;-85
2022/03/02 09:44:19;;;;;;;16.65;10.38;;;;;;;;;;5041444;28;20034;-84
2022/03/02 09:46:48;;;;;;;16.75;11.68;;;;;;;;;;5043520;28;20032;-83
2022/03/02 09:49:20;;;;;;;20.35;11.85;;;;;;;;;;5039726;28;20082;-84
2022/03/02 09:51:50;;;;;;;20.42;11.98;;;;;;;;;;5040093;28;20036;-85
2022/03/02 09:54:19;;;;;;;17.30;11.93;;;;;;;;;;5057096;28;20144;-83
2022/03/02 09:56:48;;;;;;;20.00;12.27;;;;;;;;;;5057951;28;20025;-84
2022/03/02 09:59:14;;;;;;;20.52;11.75;;;;;;;;;;5056578;28;20494;-84
2022/03/02 10:01:42;;;;;;;17.23;11.70;;;;;;;;;;5059183;28;20103;-84
2022/03/02 10:04:21;;;;;;;18.20;11.98;;;;;;;;;;5051288;28;20082;-83
2022/03/02 10:06:48;;;;;;;17.15;11.35;;;;;;;;;;5065988;28;20040;-82
2022/03/02 10:09:14;;;;;;;16.88;10.73;;;;;;;;;;5050929;28;20037;-83
2022/03/02 10:11:43;;;;;;;21.20;12.07;;;;;;;;;;5042369;28;20033;-84
2022/03/02 10:14:10;;;;;;;16.25;11.35;;;;;;;;;;5046204;28;20033;-84
2022/03/02 10:16:42;;;;;;;18.55;11.35;;;;;;;;;;5044919;28;20021;-83
2022/03/02 10:19:09;;;;;;;19.67;12.23;;;;;;;;;;5059906;28;20368;-83
2022/03/02 10:21:40;;;;;;;19.15;10.57;;;;;;;;;;5060622;28;20694;-84
2022/03/02 10:24:13;;;;;;;17.52;11.63;;;;;;;;;;5040301;28;20580;-83
2022/03/02 10:26:50;;;;;;;16.50;10.55;;;;;;;;;;5041631;28;20025;-83
2022/03/02 10:29:17;;;;;;;18.88;11.25;;;;;;;;;;5042892;28;20063;-84
2022/03/02 10:31:44;;;;;;;23.35;11.80;;;;;;;;;;5037751;28;20048;-83
2022/03/02 10:34:16;;;;;;;21.40;12.40;;;;;;;;;;5056578;28;20021;-84
2022/03/02 10:36:43;;;;;;;22.20;11.98;;;;;;;;;;5057628;28;20013;-86
2022/03/02 10:39:14;;;;;;;17.52;10.93;;;;;;;;;;5043868;28;20260;-84
2022/03/02 10:41:43;;;;;;;30.70;13.48;;;;;;;;;;5040730;28;20038;-85
2022/03/02 10:44:30;;;;;;;19.25;11.52;;;;;;;;;;5037194;28;20021;-85
2022/03/02 10:47:01;;;;;;;15.07;11.27;;;;;;;;;;5036754;28;20129;-83
2022/03/02 10:49:29;;;;;;;19.67;10.70;;;;;;;;;;5037890;28;20491;-85
2022/03/02 10:51:56;;;;;;;15.75;9.75;;;;;;;;;;5039173;28;20109;-84
2022/03/02 10:54:24;;;;;;;14.50;9.23;;;;;;;;;;5040082;28;20050;-84
2022/03/02 10:56:53;;;;;;;13.68;8.45;;;;;;;;;;5049299;28;20051;-83
2022/03/02 10:59:21;;;;;;;14.18;8.35;;;;;;;;;;5047876;28;20021;-83
2022/03/02 11:01:49;;;;;;;16.63;9.75;;;;;;;;;;5056442;28;20032;-85
2022/03/02 11:04:18;;;;;;;14.25;8.73;;;;;;;;;;5061366;28;20093;-85
2022/03/02 11:06:44;;;;;;;13.18;8.32;;;;;;;;;;5059809;28;20029;-81
2022/03/02 11:09:10;;;;;;;12.40;8.07;;;;;;;;;;5040244;28;20036;-84
2022/03/02 11:11:36;;;;;;;21.27;9.55;;;;;;;;;;5038145;28;20040;-86
2022/03/02 11:14:04;;;;;;;13.30;8.23;;;;;;;;;;5034677;28;20044;-84
2022/03/02 11:16:30;;;;;;;19.98;8.80;;;;;;;;;;5040371;28;20359;-84
2022/03/02 11:18:56;;;;;;;15.63;8.07;;;;;;;;;;5055998;28;20024;-83
2022/03/02 11:21:24;;;;;;;11.13;7.65;;;;;;;;;;5040483;28;20022;-85
2022/03/02 11:23:52;;;;;;;19.65;10.25;;;;;;;;;;5058643;28;20017;-83
2022/03/02 11:26:23;;;;;;;12.73;8.20;;;;;;;;;;5059838;28;20485;-85
2022/03/02 11:28:56;;;;;;;22.23;9.80;;;;;;;;;;5059348;28;20040;-81
2022/03/02 11:31:26;;;;;;;11.18;7.15;;;;;;;;;;5059018;28;20402;-83
2022/03/02 11:33:52;;;;;;;11.55;7.97;;;;;;;;;;5050516;28;20036;-83
2022/03/02 11:36:19;;;;;;;20.30;8.05;;;;;;;;;;5057892;28;20021;-83
2022/03/02 11:38:47;;;;;;;11.50;7.47;;;;;;;;;;5058726;28;20100;-83
2022/03/02 11:41:13;;;;;;;11.02;7.28;;;;;;;;;;5057062;28;20040;-85
2022/03/02 11:43:40;;;;;;;10.98;7.03;;;;;;;;;;5057142;28;20029;-85
2022/03/02 11:46:07;;;;;;;10.98;6.82;;;;;;;;;;5057897;28;20040;-84
2022/03/02 11:48:36;;;;;;;11.88;7.30;;;;;;;;;;5047908;28;20538;-85
2022/03/02 11:51:02;;;;;;;10.88;7.85;;;;;;;;;;5060341;28;20054;-84
2022/03/02 11:53:32;;;;;;;13.07;8.00;;;;;;;;;;5042855;28;20049;-84
2022/03/02 11:55:59;;;;;;;11.90;7.65;;;;;;;;;;5043438;28;20021;-85
2022/03/02 11:58:26;;;;;;;13.48;7.90;;;;;;;;;;5053978;28;20079;-85
2022/03/02 12:00:52;;;;;;;14.02;8.13;;;;;;;;;;5055108;28;20021;-84
2022/03/02 12:03:18;;;;;;;11.63;7.00;;;;;;;;;;5050436;28;20055;-84
2022/03/02 12:05:44;;;;;;;11.88;7.15;;;;;;;;;;5038433;28;20033;-84
2022/03/02 12:08:17;;;;;;;10.35;7.32;;;;;;;;;;5037928;28;20030;-84
2022/03/02 12:10:52;;;;;;;12.93;7.10;;;;;;;;;;5039667;28;20021;-83
2022/03/02 12:13:18;;;;;;;10.68;5.90;;;;;;;;;;5047580;28;20041;-84
2022/03/02 12:15:47;;;;;;;11.02;7.00;;;;;;;;;;5051956;28;20033;-83
2022/03/02 12:18:15;;;;;;;10.23;6.70;;;;;;;;;;5042643;28;20510;-83
2022/03/02 12:20:59;;;;;;;12.68;7.30;;;;;;;;;;5049735;28;20479;-84
2022/03/02 12:23:30;;;;;;;11.18;6.28;;;;;;;;;;5044737;28;20041;-84
2022/03/02 12:25:58;;;;;;;10.57;6.50;;;;;;;;;;5038474;28;20084;-83
2022/03/02 12:28:24;;;;;;;9.85;5.93;;;;;;;;;;5037277;28;20079;-83
2022/03/02 12:30:52;;;;;;;9.90;5.85;;;;;;;;;;5038633;28;20210;-83
2022/03/02 12:33:19;;;;;;;11.02;6.55;;;;;;;;;;5044778;28;20033;-83
2022/03/02 12:35:45;;;;;;;13.30;7.00;;;;;;;;;;5039367;28;20470;-84
2022/03/02 12:38:11;;;;;;;10.25;6.43;;;;;;;;;;5038592;28;20028;-84
2022/03/02 12:40:40;;;;;;;12.02;6.82;;;;;;;;;;5046820;28;20029;-84
2022/03/02 12:43:10;;;;;;;11.30;6.72;;;;;;;;;;5040615;28;20396;-84
2022/03/02 12:45:38;;;;;;;10.05;5.88;;;;;;;;;;5037124;28;20010;-83
2022/03/02 12:48:06;;;;;;;11.70;6.28;;;;;;;;;;5037611;28;20021;-83
2022/03/02 12:50:33;;;;;;;10.55;5.90;;;;;;;;;;5054744;28;20013;-84
2022/03/02 12:52:59;;;;;;;10.23;5.40;;;;;;;;;;5052154;28;20048;-83
2022/03/02 12:55:25;;;;;;;9.27;5.30;;;;;;;;;;5057607;28;20025;-84
2022/03/02 12:57:51;;;;;;;7.68;4.60;;;;;;;;;;5046614;28;20032;-85
2022/03/02 13:00:18;;;;;;;11.30;5.80;;;;;;;;;;5043610;28;20425;-85
2022/03/02 13:02:48;;;;;;;8.68;4.88;;;;;;;;;;5043978;28;20484;-84
2022/03/02 13:05:14;;;;;;;9.30;5.80;;;;;;;;;;5043724;28;20092;-84
2022/03/02 13:07:52;;;;;;;10.20;5.93;;;;;;;;;;5039287;28;20351;-84
2022/03/02 13:10:21;;;;;;;8.38;5.10;;;;;;;;;;5055401;28;20029;-84
2022/03/02 13:12:52;;;;;;;7.57;4.60;;;;;;;;;;5049443;28;20445;-83
2022/03/02 13:15:18;;;;;;;8.95;5.40;;;;;;;;;;5047843;28;20079;-83
2022/03/02 13:17:45;;;;;;;8.60;5.63;;;;;;;;;;5054568;28;20026;-83
2022/03/02 13:20:18;;;;;;;9.48;5.57;;;;;;;;;;5053244;28;20029;-85
2022/03/02 13:22:46;;;;;;;9.73;5.85;;;;;;;;;;5053900;28;20028;-85
2022/03/02 13:25:13;;;;;;;11.73;6.38;;;;;;;;;;5041350;28;20029;-84
2022/03/02 13:27:57;;;;;;;9.52;5.70;;;;;;;;;;5042391;28;20052;-84
2022/03/02 13:30:23;;;;;;;10.10;6.15;;;;;;;;;;5058702;28;20029;-84
2022/03/02 13:32:54;;;;;;;10.63;6.40;;;;;;;;;;5059211;28;20324;-84
2022/03/02 13:35:21;;;;;;;9.02;5.35;;;;;;;;;;5040873;28;20025;-84
2022/03/02 13:38:07;;;;;;;9.20;6.05;;;;;;;;;;5042528;28;20159;-84
2022/03/02 13:40:33;;;;;;;10.68;6.20;;;;;;;;;;5045291;28;20033;-83
2022/03/02 13:43:22;;;;;;;9.38;5.60;;;;;;;;;;5042734;28;20026;-84
2022/03/02 13:46:14;;;;;;;9.80;5.63;;;;;;;;;;5045863;28;20021;-84
2022/03/02 13:48:46;;;;;;;9.75;5.72;;;;;;;;;;5045040;28;20503;-83
2022/03/02 13:51:13;;;;;;;8.80;5.90;;;;;;;;;;5044979;28;20234;-84
2022/03/02 13:53:40;;;;;;;8.85;5.95;;;;;;;;;;5063494;28;20586;-84
2022/03/02 13:56:06;;;;;;;9.15;5.82;;;;;;;;;;5065538;28;20014;-83
2022/03/02 13:58:33;;;;;;;11.40;6.60;;;;;;;;;;5056412;28;20029;-84
2022/03/02 14:01:11;;;;;;;9.75;6.53;;;;;;;;;;5044735;28;20018;-84
2022/03/02 14:03:43;;;;;;;9.27;5.93;;;;;;;;;;5053295;28;20063;-84
2022/03/02 14:06:16;;;;;;;10.93;6.60;;;;;;;;;;5046542;28;20041;-82
2022/03/02 14:08:42;;;;;;;;;;;;;;;;;;5047941;28;20036;-84
2022/03/02 14:11:09;;;;;;;8.60;5.30;;;;;;;;;;5046860;28;19905;-85
2022/03/02 14:13:35;;;;;;;9.52;6.18;;;;;;;;;;5050578;28;20021;-84
2022/03/02 14:16:07;;;;;;;11.07;6.10;;;;;;;;;;5061419;28;20025;-85
2022/03/02 14:18:33;;;;;;;12.52;6.43;;;;;;;;;;5046671;28;20045;-85
2022/03/02 14:21:08;;;;;;;12.13;6.70;;;;;;;;;;5044657;28;20033;-85
2022/03/02 14:23:44;;;;;;;11.98;7.22;;;;;;;;;;5043982;28;20052;-83